Time;durP1;ratioP1;P1;durP2;ratioP2;P2;SDS_P1;SDS_P2;PMS_P1;PMS_P2;Temp;Humidity;BMP_temperature;BMP_pressure;BME280_temperature;BME280_humidity;BME280_pressure;Samples;Min_cycle;Max_cycle;Signal;HPM_P1;HPM_P2
2022/09/15 00:00:19;;;;;;;;;3.75;3.75;;;;;21.37;64.39;100027.72;5000498;28;45734;-89
2022/09/15 00:02:45;;;;;;;;;1.00;1.00;;;;;21.30;64.07;100034.81;5014012;28;45805;-84
2022/09/15 00:05:11;;;;;;;;;2.75;2.75;;;;;21.24;64.25;100019.59;4981270;28;47025;-90
2022/09/15 00:07:37;;;;;;;;;2.00;2.00;;;;;21.19;64.67;100006.84;4979244;28;47127;-89
2022/09/15 00:10:05;;;;;;;;;0.75;0.75;;;;;21.20;64.97;100013.84;4977691;28;45952;-86
2022/09/15 00:12:33;;;;;;;;;2.25;2.25;;;;;21.19;64.70;100019.34;4994304;28;45875;-86
2022/09/15 00:14:59;;;;;;;;;2.00;2.00;;;;;21.29;64.18;100020.66;4976016;28;48484;-86
2022/09/15 00:17:25;;;;;;;;;1.75;1.75;;;;;21.22;64.44;100014.44;4981763;28;47319;-85
2022/09/15 00:19:51;;;;;;;;;2.00;2.00;;;;;21.26;64.15;100018.41;4977773;28;45827;-89
2022/09/15 00:22:18;;;;;;;;;0.75;0.75;;;;;21.20;63.74;100005.00;4976582;28;45958;-85
2022/09/15 00:24:45;;;;;;;;;2.50;2.00;;;;;21.28;63.82;100032.34;4993514;28;45612;-88
2022/09/15 00:27:10;;;;;;;;;1.00;1.00;;;;;21.23;64.13;100029.41;4994604;28;45872;-88
2022/09/15 00:29:36;;;;;;;;;1.00;1.00;;;;;21.11;64.25;100014.94;4999089;28;46114;-87
2022/09/15 00:32:01;;;;;;;;;1.75;1.75;;;;;21.07;63.99;100008.34;4998380;28;46301;-87
2022/09/15 00:34:26;;;;;;;;;2.00;2.00;;;;;21.07;64.11;100011.00;4999326;28;46574;-85
2022/09/15 00:36:52;;;;;;;;;1.50;1.50;;;;;21.07;64.16;100019.00;5003439;28;45773;-87
2022/09/15 00:39:17;;;;;;;;;1.50;1.50;;;;;21.05;64.12;100013.06;4994968;28;46967;-90
2022/09/15 00:41:43;;;;;;;;;2.25;1.75;;;;;20.99;64.22;100003.16;4983190;28;45665;-87
2022/09/15 00:44:17;;;;;;;;;1.75;1.75;;;;;21.10;64.41;100026.63;4992420;28;46958;-87
2022/09/15 00:46:50;;;;;;;;;4.00;4.00;;;;;21.09;64.26;100024.16;4993460;28;46342;-86
2022/09/15 00:49:29;;;;;;;;;3.00;2.25;;;;;21.11;64.21;100036.25;4993200;28;45727;-85
2022/09/15 00:52:09;;;;;;;;;3.00;3.00;;;;;21.04;64.10;100029.22;4992846;28;45828;-87
2022/09/15 00:54:47;;;;;;;;;3.25;2.25;;;;;21.01;64.61;100037.56;4987191;28;46503;-86
2022/09/15 00:57:20;;;;;;;;;2.25;2.25;;;;;21.06;65.20;100053.81;5007795;28;46186;-87
2022/09/15 00:59:47;;;;;;;;;2.50;2.50;;;;;21.01;64.30;100041.06;5016157;28;45750;-87
2022/09/15 01:02:25;;;;;;;;;3.50;3.50;;;;;20.93;64.56;100047.38;4998089;28;45707;-87
2022/09/15 01:04:52;;;;;;;;;2.75;2.75;;;;;20.91;64.60;100048.56;5013468;28;45846;-88
2022/09/15 01:07:25;;;;;;;;;2.00;1.75;;;;;20.84;64.77;100042.31;5009460;28;46282;-88
2022/09/15 01:09:57;;;;;;;;;2.00;2.00;;;;;20.82;64.76;100050.53;5014173;28;45704;-85
2022/09/15 01:12:24;;;;;;;;;2.75;2.75;;;;;20.78;64.61;100041.25;5015538;28;45943;-87
2022/09/15 01:14:50;;;;;;;;;3.25;2.50;;;;;20.76;64.71;100037.13;5014755;28;45797;-85
2022/09/15 01:17:42;;;;;;;;;2.50;2.00;;;;;20.75;64.71;100043.47;5015230;28;45646;-87
2022/09/15 01:20:28;;;;;;;;;3.25;3.25;;;;;20.86;64.83;100067.75;4992913;28;45805;-89
2022/09/15 01:23:20;;;;;;;;;3.00;3.00;;;;;20.80;64.70;100055.19;4994699;28;45686;-87
2022/09/15 01:26:09;;;;;;;;;4.00;4.00;;;;;20.84;64.66;100061.78;4973258;28;45949;-87
2022/09/15 01:29:12;;;;;;;;;4.25;2.75;;;;;20.82;64.84;100061.19;4955284;28;46562;-85
2022/09/15 01:34:37;;;;;;;;;2.50;2.50;;;;;20.75;64.90;100054.94;4972640;28;45561;-88
2022/09/15 01:37:11;;;;;;;;;5.25;3.25;;;;;20.76;65.03;100069.91;4973552;28;45664;-86
2022/09/15 01:39:42;;;;;;;;;3.75;3.75;;;;;20.78;64.68;100070.53;4969653;28;45753;-86
2022/09/15 01:42:11;;;;;;;;;4.25;3.25;;;;;20.73;64.74;100069.47;4976115;28;45770;-89
2022/09/15 01:44:42;;;;;;;;;3.75;3.75;;;;;20.72;65.17;100065.97;4956347;28;45693;-88
2022/09/15 01:47:12;;;;;;;;;4.00;3.25;;;;;20.62;65.00;100054.78;4957951;28;46717;-90
2022/09/15 01:50:01;;;;;;;;;2.25;2.25;;;;;20.70;64.78;100069.84;4972439;28;46004;-89
2022/09/15 01:52:28;;;;;;;;;4.00;3.75;;;;;20.67;65.11;100070.22;4959191;28;45706;-86
2022/09/15 01:55:03;;;;;;;;;1.75;1.75;;;;;20.65;64.83;100064.25;4974409;28;45660;-89
2022/09/15 01:57:28;;;;;;;;;0.75;0.75;;;;;20.64;64.75;100067.91;4961558;28;49257;-86
2022/09/15 02:00:04;;;;;;;;;2.00;1.75;;;;;20.56;64.94;100066.22;4980512;28;46423;-89
2022/09/15 02:02:42;;;;;;;;;1.00;1.00;;;;;20.57;64.75;100067.84;4998887;28;46212;-91
2022/09/15 02:05:32;;;;;;;;;2.00;1.50;;;;;20.58;64.90;100081.97;5016848;28;45836;-86
2022/09/15 02:08:07;;;;;;;;;1.00;1.00;;;;;20.47;65.32;100069.97;5002484;28;48489;-89
2022/09/15 02:10:45;;;;;;;;;1.50;1.50;;;;;20.54;65.70;100078.88;4996144;28;46157;-88
2022/09/15 02:13:19;;;;;;;;;1.75;1.50;;;;;20.47;65.47;100070.78;5015210;28;45855;-88
2022/09/15 02:15:52;;;;;;;;;3.50;3.25;;;;;20.48;65.64;100084.94;5017872;28;45687;-90
2022/09/15 02:18:33;;;;;;;;;9.50;9.50;;;;;20.43;65.89;100079.34;5017099;28;46613;-84
2022/09/15 02:21:14;;;;;;;;;12.25;10.00;;;;;20.39;65.88;100075.41;5018488;28;46104;-89
2022/09/15 02:23:49;;;;;;;;;11.50;11.00;;;;;20.35;65.24;100093.56;5017447;28;46081;-86
2022/09/15 02:26:19;;;;;;;;;14.50;13.75;;;;;20.20;65.40;100078.56;5018957;28;45745;-88
2022/09/15 02:28:47;;;;;;;;;16.00;15.00;;;;;20.13;65.63;100087.28;5019060;28;46883;-86
2022/09/15 02:31:16;;;;;;;;;11.75;11.75;;;;;20.08;65.65;100086.22;5018997;28;46298;-90
2022/09/15 02:34:07;;;;;;;;;16.25;13.50;;;;;19.96;65.86;100088.50;5028886;28;45577;-87
2022/09/15 02:36:33;;;;;;;;;14.00;13.50;;;;;19.93;65.48;100090.69;5016453;28;46227;-88
2022/09/15 02:39:07;;;;;;;;;18.50;14.00;;;;;19.80;65.76;100061.25;5027074;28;45635;-88
2022/09/15 02:41:35;;;;;;;;;15.25;15.00;;;;;19.82;65.73;100072.50;4998465;28;47243;-87
2022/09/15 02:44:02;;;;;;;;;16.00;14.25;;;;;19.78;66.12;100076.53;5022163;28;45666;-89
2022/09/15 02:46:28;;;;;;;;;16.75;15.50;;;;;19.68;65.81;100067.00;5022266;28;45568;-88
2022/09/15 02:48:53;;;;;;;;;10.00;9.25;;;;;19.66;65.99;100060.22;5022984;28;45605;-87
2022/09/15 02:51:19;;;;;;;;;16.00;13.25;;;;;19.70;65.98;100080.13;5007084;28;47149;-90
2022/09/15 02:53:45;;;;;;;;;13.00;12.00;;;;;19.67;65.73;100085.78;5026625;28;46040;-88
2022/09/15 02:56:11;;;;;;;;;13.00;12.50;;;;;19.61;66.35;100079.34;5019540;28;45646;-84
2022/09/15 02:58:36;;;;;;;;;12.75;11.00;;;;;19.56;66.19;100079.06;5000036;28;47534;-90
2022/09/15 03:01:06;;;;;;;;;12.00;12.00;;;;;19.61;66.07;100092.66;5017770;28;46298;-89
2022/09/15 03:03:33;;;;;;;;;13.25;12.25;;;;;19.53;65.91;100071.47;5022769;28;45722;-87
2022/09/15 03:06:15;;;;;;;;;11.00;10.75;;;;;19.58;66.00;100079.72;5001566;28;45959;-89
2022/09/15 03:08:55;;;;;;;;;9.00;9.00;;;;;19.59;65.65;100075.25;5016718;28;47693;-86
2022/09/15 03:11:25;;;;;;;;;9.50;7.75;;;;;19.64;65.62;100086.16;5018391;28;45565;-84
2022/09/15 03:13:59;;;;;;;;;10.25;9.75;;;;;19.59;65.14;100076.06;5028008;28;45721;-83
2022/09/15 03:16:26;;;;;;;;;8.50;8.00;;;;;19.60;65.29;100074.22;5014555;28;47496;-84
2022/09/15 03:18:54;;;;;;;;;10.25;9.75;;;;;19.54;65.08;100072.31;5015350;28;46542;-84
2022/09/15 03:21:20;;;;;;;;;10.00;9.00;;;;;19.48;65.15;100067.69;5015734;28;45906;-85
2022/09/15 03:23:45;;;;;;;;;8.00;8.00;;;;;19.47;64.99;100080.16;5031171;28;45583;-86
2022/09/15 03:26:11;;;;;;;;;9.50;8.75;;;;;19.45;64.98;100068.88;5024744;28;45519;-86
2022/09/15 03:28:38;;;;;;;;;7.00;7.00;;;;;19.52;64.64;100085.75;5025015;28;45654;-85
2022/09/15 03:31:05;;;;;;;;;8.75;8.00;;;;;19.42;64.01;100068.38;4999338;28;47161;-85
2022/09/15 03:33:30;;;;;;;;;9.75;9.00;;;;;19.46;64.06;100086.47;5017140;28;45726;-85
2022/09/15 03:35:56;;;;;;;;;9.00;8.25;;;;;19.49;64.15;100088.75;5025546;28;46281;-84
2022/09/15 03:38:22;;;;;;;;;8.25;7.75;;;;;19.43;63.93;100080.66;5028459;28;45697;-84
2022/09/15 03:41:00;;;;;;;;;10.00;9.00;;;;;19.48;63.61;100089.78;5025053;28;45726;-86
2022/09/15 03:43:26;;;;;;;;;8.00;8.00;;;;;19.39;63.17;100071.38;5018314;28;45759;-88
2022/09/15 03:45:51;;;;;;;;;9.00;8.50;;;;;19.43;63.06;100080.66;4999258;28;45962;-88
2022/09/15 03:48:18;;;;;;;;;9.50;8.00;;;;;19.37;62.61;100097.31;5015593;28;46372;-88
2022/09/15 03:50:44;;;;;;;;;8.50;7.00;;;;;19.25;62.72;100076.47;5017171;28;45857;-87
2022/09/15 03:53:10;;;;;;;;;8.25;8.00;;;;;19.20;62.32;100070.06;5024751;28;45705;-85
2022/09/15 03:55:35;;;;;;;;;11.75;9.00;;;;;19.13;62.33;100072.59;5011192;28;45663;-83
2022/09/15 03:58:00;;;;;;;;;9.25;9.00;;;;;19.05;62.63;100070.00;5005692;28;47346;-86
2022/09/15 04:00:42;;;;;;;;;7.50;7.50;;;;;19.13;62.74;100090.34;5012114;28;46245;-84
2022/09/15 04:03:08;;;;;;;;;9.00;8.75;;;;;19.08;62.79;100082.91;5030665;28;45743;-85
2022/09/15 04:05:34;;;;;;;;;12.00;11.00;;;;;19.05;62.86;100090.41;5020647;28;45913;-89
2022/09/15 04:08:00;;;;;;;;;11.25;9.75;;;;;19.07;63.00;100091.88;5023542;28;45809;-89
2022/09/15 04:10:36;;;;;;;;;10.00;10.00;;;;;18.95;63.12;100079.19;5002045;28;47193;-87
2022/09/15 04:13:01;;;;;;;;;13.50;12.75;;;;;19.04;63.19;100105.53;5022549;28;45690;-87
2022/09/15 04:15:33;;;;;;;;;10.00;9.25;;;;;19.05;63.36;100101.88;5003688;28;46058;-90
2022/09/15 04:17:59;;;;;;;;;9.50;8.00;;;;;18.88;63.43;100080.91;5007972;28;48305;-90
2022/09/15 04:20:24;;;;;;;;;11.25;9.50;;;;;18.83;63.80;100084.09;5018233;28;45802;-88
2022/09/15 04:22:52;;;;;;;;;12.00;11.00;;;;;18.87;63.87;100109.28;5000286;28;45722;-88
2022/09/15 04:25:18;;;;;;;;;10.50;10.00;;;;;18.85;63.96;100105.94;5016950;28;45702;-88
2022/09/15 04:27:43;;;;;;;;;10.25;9.25;;;;;18.71;64.06;100096.09;5019067;28;45830;-87
2022/09/15 04:30:12;;;;;;;;;13.25;11.00;;;;;18.75;63.70;100118.63;5025332;28;47014;-90
2022/09/15 04:32:40;;;;;;;;;12.00;11.00;;;;;18.65;64.04;100102.91;5020918;28;45560;-88
2022/09/15 04:35:11;;;;;;;;;12.75;11.75;;;;;18.73;63.75;100116.13;5000514;28;45739;-89
2022/09/15 04:37:39;;;;;;;;;12.25;10.75;;;;;18.64;63.53;100111.03;5000390;28;47306;-88
2022/09/15 04:40:05;;;;;;;;;13.00;11.75;;;;;18.68;63.86;100117.66;5016549;28;46488;-91
2022/09/15 04:42:30;;;;;;;;;13.25;12.75;;;;;18.56;63.92;100103.97;5000631;28;45904;-90
2022/09/15 04:45:37;;;;;;;;;11.75;11.50;;;;;18.56;63.91;100108.44;5006190;28;45921;-92
2022/09/15 04:48:42;;;;;;;;;;;;;;;;;;;;;
2022/09/15 04:51:18;;;;;;;;;14.50;14.25;;;;;18.55;63.52;100110.25;4968358;28;73874;-89
2022/09/15 04:53:44;;;;;;;;;13.50;12.50;;;;;18.67;63.44;100142.56;4964317;28;45614;-88
2022/09/15 04:56:20;;;;;;;;;18.50;15.75;;;;;18.46;63.42;100105.97;4961108;28;45670;-88
2022/09/15 04:58:51;;;;;;;;;12.50;12.00;;;;;18.64;63.85;100148.19;4976574;28;45615;-91
2022/09/15 05:01:25;;;;;;;;;15.00;13.25;;;;;18.58;63.32;100138.25;4961306;28;46791;-86
2022/09/15 05:03:51;;;;;;;;;16.25;15.00;;;;;18.58;63.52;100152.34;4978013;28;45741;-90
2022/09/15 05:06:22;;;;;;;;;17.75;16.00;;;;;18.54;63.48;100152.84;4984766;28;45578;-89
2022/09/15 05:08:49;;;;;;;;;15.00;13.00;;;;;18.51;63.28;100158.50;4977047;28;47175;-87
2022/09/15 05:11:16;;;;;;;;;13.75;12.50;;;;;18.52;63.38;100160.97;4964430;28;48067;-87
2022/09/15 05:13:41;;;;;;;;;15.25;13.75;;;;;18.46;63.33;100159.03;4959256;28;45636;-76
2022/09/15 05:16:12;;;;;;;;;17.25;16.00;;;;;18.36;63.61;100159.19;4969168;28;45732;-78
2022/09/15 05:18:41;;;;;;;;;17.00;16.00;;;;;18.39;63.48;100171.31;4970302;28;48451;-75
2022/09/15 05:21:09;;;;;;;;;17.00;14.75;;;;;18.38;63.60;100170.47;4954064;28;48499;-83
2022/09/15 05:23:36;;;;;;;;;15.25;15.00;;;;;18.32;63.69;100172.97;4993484;28;45758;-77
2022/09/15 05:26:04;;;;;;;;;15.00;14.25;;;;;18.35;63.48;100185.91;4999968;28;46115;-75
2022/09/15 05:28:32;;;;;;;;;18.00;13.25;;;;;18.32;63.88;100181.75;5015532;28;46797;-78
2022/09/15 05:30:58;;;;;;;;;20.50;13.75;;;;;18.29;63.94;100184.75;5015698;28;46759;-77
2022/09/15 05:33:23;;;;;;;;;14.00;13.25;;;;;18.27;64.13;100185.91;5016132;28;45861;-79
2022/09/15 05:35:54;;;;;;;;;16.75;14.75;;;;;18.15;63.96;100176.63;5012706;28;45650;-85
2022/09/15 05:38:20;;;;;;;;;14.00;12.75;;;;;18.24;64.26;100195.06;5014946;28;45643;-79
2022/09/15 05:40:46;;;;;;;;;15.50;14.00;;;;;18.09;63.95;100170.19;4995004;28;46197;-77
2022/09/15 05:43:11;;;;;;;;;14.00;12.50;;;;;18.13;64.38;100189.25;5013862;28;45706;-77
2022/09/15 05:45:37;;;;;;;;;15.50;14.50;;;;;18.16;64.49;100191.56;5013306;28;46137;-78
2022/09/15 05:48:03;;;;;;;;;16.50;15.75;;;;;18.12;64.21;100199.03;5011298;28;46225;-78
2022/09/15 05:50:29;;;;;;;;;16.00;14.00;;;;;18.12;64.18;100203.50;4993987;28;47094;-78
2022/09/15 05:52:55;;;;;;;;;16.50;14.25;;;;;18.07;64.27;100197.88;5012963;28;45796;-78
2022/09/15 05:55:21;;;;;;;;;18.50;16.00;;;;;18.06;64.43;100196.22;5010023;28;45579;-79
2022/09/15 05:57:46;;;;;;;;;19.00;15.00;;;;;17.97;64.62;100190.09;5011522;28;46401;-79
2022/09/15 06:00:12;;;;;;;;;17.25;14.50;;;;;17.94;64.38;100201.03;5010711;28;46173;-79
2022/09/15 06:02:37;;;;;;;;;13.75;13.00;;;;;17.94;65.02;100193.06;5012523;28;45784;-79
2022/09/15 06:05:03;;;;;;;;;14.25;12.75;;;;;17.86;65.05;100206.34;4994510;28;46203;-79
2022/09/15 06:07:28;;;;;;;;;16.25;15.50;;;;;17.88;64.95;100217.59;5011364;28;46132;-80
2022/09/15 06:09:54;;;;;;;;;15.75;13.00;;;;;17.86;64.86;100214.28;5009797;28;46631;-77
2022/09/15 06:12:20;;;;;;;;;17.25;15.00;;;;;17.88;65.56;100218.41;5014914;28;45995;-79
2022/09/15 06:14:49;;;;;;;;;12.25;11.25;;;;;17.81;65.75;100217.44;5011769;28;45746;-78
2022/09/15 06:17:16;;;;;;;;;17.75;16.00;;;;;17.77;65.62;100212.63;5010099;28;46776;-79
2022/09/15 06:19:41;;;;;;;;;21.75;17.50;;;;;17.79;65.59;100221.25;5012302;28;46623;-78
2022/09/15 06:22:07;;;;;;;;;18.25;15.50;;;;;17.81;65.57;100227.22;5014011;28;45713;-79
2022/09/15 06:24:32;;;;;;;;;15.50;15.00;;;;;17.83;65.58;100227.84;5013254;28;45875;-79
2022/09/15 06:26:58;;;;;;;;;19.25;17.00;;;;;17.80;65.31;100238.81;5013064;28;45734;-81
2022/09/15 06:29:24;;;;;;;;;21.25;18.75;;;;;17.81;65.45;100236.00;5013421;28;46189;-79
2022/09/15 06:31:49;;;;;;;;;18.50;16.00;;;;;17.80;65.79;100241.44;5013114;28;45616;-79
2022/09/15 06:34:15;;;;;;;;;23.50;21.75;;;;;17.84;65.85;100242.78;5013636;28;45657;-80
2022/09/15 06:36:40;;;;;;;;;22.00;18.75;;;;;17.77;65.68;100236.47;5013431;28;45724;-80
2022/09/15 06:39:07;;;;;;;;;20.00;16.00;;;;;17.76;65.70;100237.47;5012133;28;46142;-79
2022/09/15 06:41:32;;;;;;;;;22.50;19.25;;;;;17.84;65.15;100248.06;5013663;28;45607;-80
2022/09/15 06:43:58;;;;;;;;;23.75;21.75;;;;;17.84;65.38;100246.25;5013165;28;45923;-79
2022/09/15 06:46:25;;;;;;;;;21.00;20.25;;;;;17.87;65.00;100255.69;5012705;28;46007;-78
2022/09/15 06:48:52;;;;;;;;;25.75;22.75;;;;;17.82;65.54;100247.41;5012704;28;46167;-79
2022/09/15 06:51:20;;;;;;;;;20.50;18.75;;;;;17.85;64.85;100260.34;5013311;28;45686;-78
2022/09/15 06:53:46;;;;;;;;;25.75;23.75;;;;;17.88;65.27;100263.47;5002296;28;45774;-79
2022/09/15 06:56:14;;;;;;;;;26.75;22.75;;;;;17.86;65.24;100260.19;5012247;28;46573;-79
2022/09/15 06:58:41;;;;;;;;;27.50;19.75;;;;;17.90;65.18;100271.28;5013016;28;45948;-78
2022/09/15 07:01:12;;;;;;;;;24.25;21.25;;;;;17.85;64.71;100263.81;5013180;28;45778;-79
2022/09/15 07:03:40;;;;;;;;;28.75;24.25;;;;;17.84;65.15;100262.16;5012766;28;45571;-79
2022/09/15 07:06:07;;;;;;;;;27.00;23.00;;;;;17.89;65.02;100273.09;5012793;28;46855;-78
2022/09/15 07:08:36;;;;;;;;;28.00;24.00;;;;;17.92;64.72;100278.06;5013889;28;46165;-79
2022/09/15 07:11:03;;;;;;;;;26.50;20.25;;;;;17.93;64.77;100277.06;5013644;28;45600;-79
2022/09/15 07:13:28;;;;;;;;;23.25;21.00;;;;;17.81;64.53;100259.84;5015876;28;45485;-79
2022/09/15 07:19:15;;;;;;;;;26.75;24.00;;;;;17.89;64.73;100286.34;5015268;28;45720;-79
2022/09/15 07:21:41;;;;;;;;;26.50;23.00;;;;;17.92;64.38;100291.31;5015193;28;45614;-78
2022/09/15 07:24:06;;;;;;;;;25.00;20.75;;;;;17.94;64.33;100288.50;5015348;28;45619;-77
2022/09/15 07:26:32;;;;;;;;;28.50;22.00;;;;;17.95;64.55;100298.13;5015020;28;45511;-78
2022/09/15 07:29:04;;;;;;;;;26.25;23.00;;;;;17.95;64.62;100292.81;5015047;28;46136;-78
2022/09/15 07:34:51;;;;;;;;;26.75;24.50;;;;;17.99;63.99;100296.78;5014985;28;45725;-78
2022/09/15 07:37:17;;;;;;;;;31.25;22.00;;;;;17.98;64.19;100292.47;5015097;28;46044;-79
2022/09/15 07:39:43;;;;;;;;;25.75;23.00;;;;;18.07;64.20;100303.94;5015261;28;46131;-76
2022/09/15 07:42:08;;;;;;;;;24.00;21.75;;;;;18.05;64.02;100293.47;5015012;28;45619;-78
2022/09/15 07:44:34;;;;;;;;;29.25;21.75;;;;;18.12;64.10;100309.56;5015095;28;45665;-78
2022/09/15 07:50:22;;;;;;;;;29.00;25.00;;;;;18.19;63.35;100313.22;5014484;28;45732;-77
2022/09/15 07:52:48;;;;;;;;;14.50;13.50;;;;;18.20;63.10;100314.84;5014755;28;45745;-79
2022/09/15 07:55:14;;;;;;;;;23.25;21.00;;;;;18.23;63.01;100306.59;5014459;28;45595;-78
2022/09/15 07:57:39;;;;;;;;;24.00;22.00;;;;;18.28;63.25;100310.41;5014148;28;45774;-78
2022/09/15 08:00:06;;;;;;;;;23.00;20.25;;;;;18.34;63.04;100311.56;5014830;28;45642;-79
2022/09/15 08:02:31;;;;;;;;;25.00;22.25;;;;;18.35;62.98;100313.22;5013588;28;45572;-78
2022/09/15 08:04:57;;;;;;;;;28.25;24.00;;;;;18.43;62.50;100324.66;5014633;28;45541;-78
2022/09/15 08:07:23;;;;;;;;;22.00;19.00;;;;;18.45;62.06;100321.84;5014665;28;45763;-78
2022/09/15 08:09:49;;;;;;;;;23.75;21.25;;;;;18.51;62.12;100333.63;5014213;28;45631;-77
2022/09/15 08:12:14;;;;;;;;;25.75;21.75;;;;;18.49;61.76;100320.50;5014520;28;45546;-76
2022/09/15 08:14:40;;;;;;;;;21.75;20.50;;;;;18.59;61.75;100325.66;5014918;28;45738;-78
2022/09/15 08:20:27;;;;;;;;;16.75;16.75;;;;;18.64;61.53;100321.50;5014389;28;45928;-79
2022/09/15 08:22:53;;;;;;;;;21.25;18.00;;;;;18.71;61.01;100325.16;5014540;28;45652;-79
2022/09/15 08:25:18;;;;;;;;;20.25;17.00;;;;;18.76;60.99;100327.31;5014952;28;45833;-79
2022/09/15 08:27:43;;;;;;;;;19.00;17.00;;;;;18.83;60.82;100338.91;5014392;28;46006;-78
2022/09/15 08:30:09;;;;;;;;;18.00;16.00;;;;;18.85;60.16;100336.91;5014723;28;46070;-78
2022/09/15 08:36:03;;;;;;;;;19.25;18.25;;;;;19.05;60.00;100364.75;5014207;28;45548;-80
2022/09/15 08:38:28;;;;;;;;;15.00;14.00;;;;;19.10;59.96;100365.09;5014526;28;45575;-79
2022/09/15 08:41:02;;;;;;;;;17.75;15.25;;;;;19.15;59.15;100361.91;5014089;28;45822;-79
2022/09/15 08:43:38;;;;;;;;;16.75;15.25;;;;;19.28;59.10;100378.13;5014121;28;45713;-79
2022/09/15 08:46:06;;;;;;;;;11.50;10.75;;;;;19.38;58.78;100381.41;5013983;28;45715;-79
2022/09/15 08:49:03;;;;;;;;;11.50;11.50;;;;;19.45;58.00;100376.28;4996009;28;46597;-78
2022/09/15 08:51:39;;;;;;;;;12.00;11.00;;;;;19.55;58.19;100380.38;5013416;28;45933;-78
2022/09/15 08:54:14;;;;;;;;;15.00;11.00;;;;;19.64;57.93;100384.69;5013934;28;45532;-78
2022/09/15 08:56:41;;;;;;;;;11.75;10.00;;;;;19.68;57.12;100388.66;5013884;28;45627;-78
2022/09/15 08:59:12;;;;;;;;;9.00;9.00;;;;;19.73;57.12;100374.00;5013999;28;45624;-78
2022/09/15 09:02:08;;;;;;;;;12.00;9.75;;;;;19.83;56.76;100386.06;5013149;28;46274;-78
2022/09/15 09:04:46;;;;;;;;;12.25;9.75;;;;;19.91;56.68;100383.38;5013718;28;45692;-78
2022/09/15 09:07:46;;;;;;;;;13.50;11.50;;;;;19.97;56.63;100369.38;4995770;28;45881;-79
2022/09/15 09:10:23;;;;;;;;;12.25;9.75;;;;;20.06;55.85;100368.34;4933255;28;45634;-78
2022/09/15 09:13:17;;;;;;;;;11.00;10.00;;;;;20.18;56.07;100375.91;4933238;28;46477;-78
2022/09/15 09:19:29;;;;;;;;;10.00;9.00;;;;;20.35;55.50;100372.16;4933800;28;45806;-78
2022/09/15 09:22:00;;;;;;;;;11.00;10.00;;;;;20.38;55.12;100385.94;4933302;28;46663;-78
2022/09/15 09:24:45;;;;;;;;;9.50;9.00;;;;;20.44;54.66;100371.09;4933065;28;46610;-77
2022/09/15 09:27:14;;;;;;;;;9.75;7.50;;;;;20.47;54.53;100376.03;4933202;28;45752;-78
2022/09/15 09:29:48;;;;;;;;;9.25;9.25;;;;;20.53;54.03;100394.78;4933396;28;45652;-78
2022/09/15 09:35:44;;;;;;;;;8.25;7.25;;;;;20.64;53.94;100387.38;4932690;28;45831;-78
2022/09/15 09:38:11;;;;;;;;;8.75;8.00;;;;;20.66;53.93;100380.88;4933285;28;45727;-78
2022/09/15 09:40:39;;;;;;;;;12.00;8.50;;;;;20.67;53.58;100377.22;4933299;28;45914;-78
2022/09/15 09:43:06;;;;;;;;;7.75;5.00;;;;;20.69;53.68;100377.84;4935733;28;45769;-77
2022/09/15 09:45:32;;;;;;;;;6.50;6.00;;;;;20.71;53.34;100385.66;5013039;28;46877;-78
2022/09/15 09:51:34;;;;;;;;;9.00;7.00;;;;;20.72;53.27;100382.84;5012890;28;45513;-77
2022/09/15 09:54:11;;;;;;;;;7.25;7.00;;;;;20.72;52.98;100384.66;5012811;28;47038;-78
2022/09/15 09:56:37;;;;;;;;;9.25;9.25;;;;;20.76;53.08;100391.28;5012605;28;45871;-77
2022/09/15 09:59:03;;;;;;;;;7.50;7.00;;;;;20.74;53.01;100391.44;5013331;28;45517;-77
2022/09/15 10:01:29;;;;;;;;;9.75;9.00;;;;;20.72;53.31;100384.66;5013423;28;45675;-78
2022/09/15 10:04:21;;;;;;;;;8.00;8.00;;;;;20.73;52.98;100400.44;5012905;28;46446;-77
2022/09/15 10:06:47;;;;;;;;;9.50;9.00;;;;;20.71;53.37;100383.00;5010149;28;45845;-79
2022/09/15 10:09:16;;;;;;;;;10.25;9.25;;;;;20.72;52.77;100385.50;5013021;28;45669;-78
2022/09/15 10:11:44;;;;;;;;;9.50;8.75;;;;;20.77;52.82;100401.75;5013306;28;45758;-78
2022/09/15 10:14:28;;;;;;;;;13.00;10.75;;;;;20.80;53.16;100389.91;5015109;28;46873;-78
2022/09/15 10:17:07;;;;;;;;;11.00;11.00;;;;;20.80;53.25;100385.41;5015695;28;46328;-78
2022/09/15 10:19:43;;;;;;;;;10.25;9.00;;;;;20.75;53.31;100382.47;5016105;28;45834;-78
2022/09/15 10:22:18;;;;;;;;;9.00;8.75;;;;;20.81;53.20;100379.09;5016372;28;45488;-78
2022/09/15 10:24:44;;;;;;;;;11.75;9.00;;;;;20.84;52.90;100383.19;5015714;28;46679;-78
2022/09/15 10:27:26;;;;;;;;;11.75;11.75;;;;;20.88;53.11;100373.88;5016051;28;46200;-77
2022/09/15 10:29:53;;;;;;;;;9.75;8.75;;;;;20.93;53.26;100382.13;5015913;28;45642;-78
2022/09/15 10:32:24;;;;;;;;;7.75;6.75;;;;;20.99;53.01;100378.75;4998077;28;45969;-78
2022/09/15 10:34:58;;;;;;;;;11.00;8.25;;;;;21.01;52.38;100382.03;5015844;28;46768;-78
2022/09/15 10:37:32;;;;;;;;;6.50;5.75;;;;;21.06;52.29;100384.16;5015958;28;46985;-78
2022/09/15 10:40:01;;;;;;;;;5.00;5.00;;;;;21.12;51.89;100383.44;5016298;28;45737;-78
2022/09/15 10:42:50;;;;;;;;;6.50;5.75;;;;;21.14;51.61;100386.75;5016420;28;45536;-78
2022/09/15 10:45:29;;;;;;;;;5.75;5.75;;;;;21.18;51.23;100380.06;5016301;28;46465;-79
2022/09/15 10:48:23;;;;;;;;;5.00;4.00;;;;;21.24;51.03;100382.00;5016011;28;46321;-79
2022/09/15 10:51:19;;;;;;;;;3.00;3.00;;;;;21.29;51.16;100384.94;5001831;28;45673;-78
2022/09/15 10:54:23;;;;;;;;;4.00;4.00;;;;;21.34;51.28;100386.06;5016370;28;45651;-78
2022/09/15 10:57:01;;;;;;;;;4.00;4.00;;;;;21.35;50.72;100386.88;4925261;28;47431;-78
2022/09/15 10:59:50;;;;;;;;;3.50;3.50;;;;;21.38;50.75;100389.16;4935308;28;45987;-78
2022/09/15 11:05:42;;;;;;;;;4.00;3.50;;;;;21.38;50.37;100389.16;4935115;28;45591;-77
2022/09/15 11:08:33;;;;;;;;;5.00;4.75;;;;;21.41;50.57;100382.66;4934930;28;45735;-78
2022/09/15 11:11:15;;;;;;;;;2.75;2.25;;;;;21.45;50.18;100390.09;4934847;28;47134;-78
2022/09/15 11:14:04;;;;;;;;;3.00;2.75;;;;;21.49;50.10;100380.69;4935164;28;45838;-78
2022/09/15 11:23:26;;;;;;;;;4.50;4.50;;;;;21.69;49.78;100372.97;4934572;28;45740;-77
2022/09/15 11:25:57;;;;;;;;;4.00;4.00;;;;;21.71;49.59;100366.44;4934412;28;45600;-78
2022/09/15 11:28:41;;;;;;;;;4.25;4.25;;;;;21.78;49.89;100367.34;4934957;28;45746;-78
2022/09/15 11:31:19;;;;;;;;;3.00;3.00;;;;;21.84;49.77;100356.94;4935084;28;46607;-78
2022/09/15 11:33:47;;;;;;;;;5.00;4.00;;;;;21.91;49.91;100360.50;4959057;28;46333;-78
2022/09/15 11:36:22;;;;;;;;;4.75;4.00;;;;;21.90;49.51;100370.34;4994298;28;45669;-78
2022/09/15 11:38:56;;;;;;;;;4.00;4.00;;;;;21.85;49.50;100362.09;4996011;28;45573;-78
2022/09/15 11:41:27;;;;;;;;;6.00;4.00;;;;;21.89;49.68;100368.69;4993469;28;47723;-78
2022/09/15 11:43:58;;;;;;;;;3.00;3.00;;;;;21.84;48.61;100364.94;4995000;28;46174;-78
2022/09/15 11:50:02;;;;;;;;;5.00;4.50;;;;;21.93;48.19;100367.28;4995044;28;45587;-78
2022/09/15 11:52:46;;;;;;;;;3.25;2.25;;;;;21.98;48.85;100361.41;4994880;28;46631;-78
2022/09/15 11:55:33;;;;;;;;;5.00;3.50;;;;;22.04;48.32;100364.16;4994634;28;45535;-78
2022/09/15 11:58:12;;;;;;;;;4.00;4.00;;;;;22.11;48.02;100366.91;5014128;28;45716;-79
2022/09/15 12:00:47;;;;;;;;;4.00;3.50;;;;;22.18;48.03;100365.16;5014891;28;45750;-78
2022/09/15 12:06:47;;;;;;;;;5.00;4.00;;;;;22.29;47.46;100361.97;5014406;28;45792;-77
2022/09/15 12:09:15;;;;;;;;;3.00;3.00;;;;;22.33;47.23;100362.41;5014630;28;45726;-78
2022/09/15 12:11:47;;;;;;;;;2.00;2.00;;;;;22.36;47.03;100367.34;5015007;28;45754;-76
2022/09/15 12:14:41;;;;;;;;;4.50;4.00;;;;;22.37;47.24;100348.47;5014189;28;46594;-77
2022/09/15 12:17:12;;;;;;;;;2.50;2.00;;;;;22.47;46.51;100354.31;5014126;28;47450;-77
2022/09/15 12:19:56;;;;;;;;;4.00;4.00;;;;;22.56;46.71;100355.03;5014477;28;45740;-77
2022/09/15 12:22:48;;;;;;;;;4.25;3.75;;;;;22.63;46.70;100350.53;5014401;28;45677;-79
2022/09/15 12:25:21;;;;;;;;;3.00;3.00;;;;;22.67;46.08;100348.31;5013416;28;45586;-78